Pagrindinis puslapis
METAR-TAF:

METAR-TAF

Oro uostai :

Oro pajėgų bazė

Meppen, Vokietija

platuma: 52-43-24N, ilguma: 007-19-35E, Aukštis: 21 m

Dabartinis oras

Ataskaita buvo paskelbta 1 valandą ir 10 minutes, ne 08:20 UTC
Vėjas 3 kt iš Vakarų
Temperatūra 13°C
Drėgmė 67%
Slėgis 1030 hPa
Matomumas 10 km arba daugiau
Mažai debesys ne aukštis 2700 ft
Su prošvaistėmis ne aukštis 35000 ft

METAR: ETWM 200820Z 26003KT 9999 FEW027 BKN350 13/07 Q1030 BLU+

Laikas: 11:30 (09:30 UTC)


TAF: trūkstamas

Orai ataskaitas ir orų prognozės (METAR, TAF).

turimą stotys yra geltonos ir raudonos taškus žemėlapyje.

Perkelti pele per norėdami pamatyti stoties vardą.

Tada spustelėkite, norėdami matyti oro stebėjimo ir prognozės.

Norėdami pakeisti žemėlapį: spustelėkite ant žalios mygtukų su juodo kryžiaus žemyn,; žalią mygtuką su brūkšneliu, jei norite nutolinti; arba žalių rodyklių gretimoms žemėlapius.


METAR-TAF: